createdAt,value
2019-02-17T00:04:57.428Z,71.18
2019-02-17T00:10:05.100Z,75.28
2019-02-17T00:15:12.800Z,67.93
2019-02-17T00:20:20.444Z,71.16
2019-02-17T00:25:28.215Z,68.32
2019-02-17T00:30:35.850Z,68.14
2019-02-17T00:35:43.669Z,72.71
2019-02-17T00:40:51.308Z,74.14
2019-02-17T00:45:59.008Z,72.44
2019-02-17T00:51:06.641Z,71.34
2019-02-17T00:56:14.332Z,74.59
2019-02-17T01:01:24.982Z,72.12
2019-02-17T01:06:22.600Z,71.97
2019-02-17T01:11:30.301Z,76.42
2019-02-17T01:16:37.933Z,75.30
2019-02-17T01:21:45.620Z,73.14
2019-02-17T01:26:53.242Z,74.49
2019-02-17T01:32:01.031Z,78.67
2019-02-17T01:37:08.679Z,78.12
2019-02-17T01:42:16.337Z,76.35
2019-02-17T01:47:23.976Z,70.34
2019-02-17T01:52:31.632Z,74.14
2019-02-17T01:57:39.306Z,77.39
2019-02-17T02:02:46.924Z,77.46
2019-02-17T02:07:54.550Z,78.29
2019-02-17T02:13:02.199Z,78.96
2019-02-17T02:18:09.888Z,76.97
2019-02-17T02:23:17.525Z,75.35
2019-02-17T02:28:25.208Z,74.58
2019-02-17T02:33:32.852Z,75.66
2019-02-17T02:38:40.524Z,75.43
2019-02-17T02:43:48.155Z,73.24
2019-02-17T02:48:55.785Z,72.87
2019-02-17T02:54:03.494Z,71.51
2019-02-17T02:59:11.417Z,72.22
2019-02-17T03:04:19.041Z,73.83
2019-02-17T03:09:26.761Z,69.16
2019-02-17T03:14:34.418Z,71.61
2019-02-17T03:19:42.128Z,77.09
2019-02-17T03:24:49.784Z,73.86
2019-02-17T03:30:04.726Z,72.03
2019-02-17T03:35:04.594Z,73.33
2019-02-17T03:40:12.258Z,73.41
2019-02-17T03:45:19.924Z,70.76
2019-02-17T03:50:27.550Z,67.84
2019-02-17T03:55:35.208Z,70.99
2019-02-17T04:00:42.863Z,78.04
2019-02-17T04:05:50.550Z,68.55
2019-02-17T04:10:58.604Z,79.27
2019-02-17T04:16:06.412Z,73.29
2019-02-17T04:21:14.065Z,71.33
2019-02-17T04:26:21.732Z,72.65
2019-02-17T04:31:29.388Z,70.65
2019-02-17T04:36:37.093Z,71.29
2019-02-17T04:41:44.802Z,68.34
2019-02-17T04:46:52.505Z,73.01
2019-02-17T04:52:00.935Z,63.24
2019-02-17T04:57:09.437Z,64.88
2019-02-17T05:02:19.039Z,72.37
2019-02-17T05:07:24.288Z,66.28
2019-02-17T05:12:31.921Z,64.16
2019-02-17T05:17:39.549Z,70.50
2019-02-17T05:22:47.183Z,62.77
2019-02-17T05:27:54.845Z,64.34
2019-02-17T05:38:09.835Z,62.35
2019-02-17T05:43:17.459Z,64.84
2019-02-17T05:48:25.176Z,66.45
2019-02-17T05:53:33.009Z,62.49
2019-02-17T05:58:40.650Z,60.50
2019-02-17T06:03:48.268Z,58.35
2019-02-17T06:08:55.973Z,61.56
2019-02-17T06:14:03.635Z,66.36
2019-02-17T06:19:11.274Z,60.03
2019-02-17T06:24:18.988Z,63.48
2019-02-17T06:29:26.589Z,60.71
2019-02-17T06:34:36.241Z,62.11
2019-02-17T06:39:43.873Z,67.91
2019-02-17T06:44:54.732Z,74.43
2019-02-17T06:49:52.355Z,65.12
2019-02-17T06:55:00.010Z,67.42
2019-02-17T07:00:07.688Z,66.50
2019-02-17T07:05:18.538Z,66.14
2019-02-17T07:10:16.129Z,67.01
2019-02-17T07:15:23.840Z,69.96
2019-02-17T07:20:31.476Z,67.51
2019-02-17T07:25:39.181Z,73.32
2019-02-17T07:30:46.921Z,70.44
2019-02-17T07:35:54.634Z,75.42
2019-02-17T07:41:02.291Z,75.44
2019-02-17T07:46:24.975Z,78.30
2019-02-17T07:51:12.752Z,75.98
2019-02-17T07:56:35.408Z,72.59
2019-02-17T08:01:30.827Z,68.82
2019-02-17T08:06:38.363Z,76.48
2019-02-17T08:11:35.090Z,68.40
2019-02-17T08:16:43.015Z,65.82
2019-02-17T08:21:52.490Z,64.34
2019-02-17T08:27:00.116Z,67.53
2019-02-17T08:32:07.728Z,61.65
2019-02-17T08:37:15.389Z,64.05
2019-02-17T08:42:23.212Z,62.57
2019-02-17T08:47:30.874Z,62.03
2019-02-17T08:52:38.486Z,57.59
2019-02-17T08:57:55.714Z,53.66
2019-02-17T09:02:52.742Z,54.72
2019-02-17T09:08:00.452Z,53.36
2019-02-17T09:13:08.103Z,50.66
2019-02-17T09:18:29.345Z,52.94
2019-02-17T09:23:29.060Z,51.08
2019-02-17T09:28:25.821Z,49.73
2019-02-17T09:33:33.436Z,50.63
2019-02-17T09:38:41.137Z,49.52
2019-02-17T09:43:58.490Z,48.30
2019-02-17T09:48:55.810Z,45.94
2019-02-17T09:54:11.158Z,46.42
2019-02-17T09:59:18.271Z,45.91
2019-02-17T10:04:14.993Z,47.07
2019-02-17T10:09:24.615Z,44.63
2019-02-17T10:14:32.251Z,43.37
2019-02-17T10:20:16.061Z,40.89
2019-02-17T10:24:42.721Z,44.92
2019-02-17T10:29:50.400Z,43.33
2019-02-17T10:34:58.029Z,41.85
2019-02-17T10:40:05.671Z,40.42
2019-02-17T10:45:13.279Z,41.41
2019-02-17T10:50:20.974Z,40.60
2019-02-17T10:55:28.619Z,39.38
2019-02-17T11:00:36.254Z,38.57
2019-02-17T11:05:43.937Z,39.02
2019-02-17T11:10:51.608Z,39.30
2019-02-17T11:15:59.342Z,39.29
2019-02-17T11:21:06.961Z,38.22
2019-02-17T11:26:14.617Z,40.07
2019-02-17T11:31:22.244Z,35.87
2019-02-17T11:36:29.870Z,37.22
2019-02-17T11:41:37.499Z,35.37
2019-02-17T11:46:45.216Z,35.43
2019-02-17T11:51:52.854Z,36.61
2019-02-17T11:57:00.538Z,34.04
2019-02-17T12:02:08.161Z,32.54
2019-02-17T12:07:15.861Z,31.79
2019-02-17T12:12:23.504Z,31.75
2019-02-17T12:17:31.625Z,28.28
2019-02-17T12:22:39.265Z,27.47
2019-02-17T12:27:46.937Z,31.91
2019-02-17T12:32:54.570Z,20.90
2019-02-17T12:38:02.249Z,28.49
2019-02-17T12:43:09.870Z,27.45
2019-02-17T12:48:17.560Z,28.56
2019-02-17T12:53:25.180Z,27.08
2019-02-17T12:58:32.869Z,26.65
2019-02-17T13:03:40.565Z,26.72
2019-02-17T13:08:48.248Z,19.54
2019-02-17T13:13:55.893Z,29.31
2019-02-17T13:19:03.537Z,25.75
2019-02-17T13:24:11.165Z,26.75
2019-02-17T13:29:18.821Z,18.52
2019-02-17T13:34:26.497Z,22.41
2019-02-17T13:39:34.143Z,24.12
2019-02-17T13:44:41.780Z,30.63
2019-02-17T13:49:50.337Z,23.87
2019-02-17T13:54:58.005Z,24.34
2019-02-17T14:00:05.656Z,17.57
2019-02-17T14:05:13.285Z,17.72
2019-02-17T14:10:20.948Z,23.06
2019-02-17T14:15:28.573Z,21.84
2019-02-17T14:20:36.207Z,22.80
2019-02-17T14:25:43.820Z,18.25
2019-02-17T14:30:51.457Z,21.15
2019-02-17T14:35:59.184Z,21.41
2019-02-17T14:41:06.808Z,22.46
2019-02-17T14:46:14.568Z,22.35
2019-02-17T14:51:22.200Z,21.99
2019-02-17T14:56:29.901Z,16.22
2019-02-17T15:01:37.548Z,16.80
2019-02-17T15:06:45.228Z,21.69
2019-02-17T15:11:52.860Z,20.58
2019-02-17T15:17:00.578Z,22.23
2019-02-17T15:22:08.226Z,21.31
2019-02-17T15:27:16.138Z,21.05
2019-02-17T15:32:24.678Z,20.70
2019-02-17T15:37:32.324Z,19.70
2019-02-17T15:42:39.948Z,19.51
2019-02-17T15:47:47.640Z,17.78
2019-02-17T15:52:55.296Z,17.91
2019-02-17T15:58:02.979Z,16.29
2019-02-17T16:03:10.613Z,17.17
2019-02-17T16:08:18.240Z,16.15
2019-02-17T16:13:25.861Z,13.72
2019-02-17T16:18:33.524Z,12.89
2019-02-17T16:23:41.163Z,13.22
2019-02-17T16:28:48.813Z,12.75
2019-02-17T16:33:56.458Z,12.21
2019-02-17T16:39:04.117Z,12.28
2019-02-17T16:44:11.776Z,13.27
2019-02-17T16:49:19.412Z,14.03
2019-02-17T16:54:27.078Z,14.34
2019-02-17T16:59:34.694Z,13.41
2019-02-17T17:04:48.415Z,13.31
2019-02-17T17:09:49.581Z,12.41
2019-02-17T17:14:57.446Z,13.74
2019-02-17T17:20:05.069Z,14.31
2019-02-17T17:25:12.724Z,14.23
2019-02-17T17:30:20.348Z,13.62
2019-02-17T17:35:27.993Z,13.40
2019-02-17T17:40:36.148Z,14.42
2019-02-17T17:45:42.780Z,14.30
2019-02-17T17:50:50.466Z,16.98
2019-02-17T17:55:58.398Z,16.79
2019-02-17T18:01:07.791Z,14.18
2019-02-17T18:06:13.274Z,23.23
2019-02-17T18:11:20.985Z,34.07
2019-02-17T18:16:28.644Z,21.74
2019-02-17T18:21:36.375Z,15.40
2019-02-17T18:26:43.996Z,13.51
2019-02-17T18:31:51.665Z,15.15
2019-02-17T18:36:59.285Z,16.96
2019-02-17T18:42:07.015Z,16.11
2019-02-17T18:47:14.628Z,17.80
2019-02-17T18:52:22.273Z,24.56
2019-02-17T18:57:29.980Z,23.95
2019-02-17T19:02:37.594Z,37.25
2019-02-17T19:07:46.092Z,26.41
2019-02-17T19:12:53.622Z,17.78
2019-02-17T19:18:01.368Z,23.05
2019-02-17T19:23:09.026Z,18.32
2019-02-17T19:28:16.697Z,22.00
2019-02-17T19:33:24.349Z,20.95
2019-02-17T19:38:32.041Z,27.65
2019-02-17T19:43:39.689Z,26.60
2019-02-17T19:48:51.398Z,28.05
2019-02-17T19:53:49.017Z,27.11
2019-02-17T19:58:56.681Z,31.36
2019-02-17T20:04:04.304Z,26.77
2019-02-17T20:09:11.941Z,24.28
2019-02-17T20:14:19.574Z,48.51
2019-02-17T20:19:27.253Z,41.85
2019-02-17T20:24:34.966Z,35.76
2019-02-17T20:29:42.600Z,23.70
2019-02-17T20:34:50.252Z,21.42
2019-02-17T20:39:57.952Z,14.41
2019-02-17T20:45:05.590Z,13.43
2019-02-17T20:50:13.286Z,15.32
2019-02-17T20:55:20.929Z,14.14
2019-02-17T21:00:28.563Z,15.99
2019-02-17T21:05:37.463Z,13.08
2019-02-17T21:10:45.162Z,14.78
2019-02-17T21:15:52.784Z,19.31
2019-02-17T21:21:00.457Z,16.82
2019-02-17T21:26:08.250Z,14.78
2019-02-17T21:31:15.912Z,21.20
2019-02-17T21:36:23.668Z,16.47
2019-02-17T21:41:31.279Z,16.56
2019-02-17T21:46:38.937Z,15.62
2019-02-17T21:51:46.586Z,16.62
2019-02-17T21:56:54.214Z,15.68
2019-02-17T22:02:01.841Z,14.34
2019-02-17T22:07:09.457Z,14.88
2019-02-17T22:12:17.086Z,15.98
2019-02-17T22:17:24.761Z,15.82
2019-02-17T22:22:36.366Z,14.68
2019-02-17T22:27:34.006Z,14.38
2019-02-17T22:32:41.642Z,14.23
2019-02-17T22:37:49.457Z,13.35
2019-02-17T22:42:57.148Z,15.38
2019-02-17T22:48:04.883Z,15.12
2019-02-17T22:53:12.573Z,13.20
2019-02-17T22:58:20.428Z,15.81
2019-02-17T23:03:28.388Z,13.92
2019-02-17T23:08:36.344Z,15.17
2019-02-17T23:13:43.966Z,13.64
2019-02-17T23:18:51.676Z,13.70
2019-02-17T23:23:59.298Z,15.32
2019-02-17T23:29:07.410Z,14.39
2019-02-17T23:34:15.025Z,12.54
2019-02-17T23:39:22.681Z,14.11
2019-02-17T23:44:30.398Z,12.17
2019-02-17T23:49:38.040Z,13.50
2019-02-17T23:54:45.704Z,14.55
2019-02-17T23:59:53.429Z,12.01
